createdAt,value
2018-05-17T00:02:25.535Z,14.40
2018-05-17T00:04:53.786Z,14.30
2018-05-17T00:07:22.088Z,14.20
2018-05-17T00:09:50.368Z,14.20
2018-05-17T00:12:18.615Z,14.00
2018-05-17T00:14:46.871Z,14.00
2018-05-17T00:17:15.894Z,13.90
2018-05-17T00:19:44.147Z,13.90
2018-05-17T00:22:12.408Z,13.90
2018-05-17T00:24:41.421Z,13.70
2018-05-17T00:27:09.670Z,13.70
2018-05-17T00:29:38.715Z,13.60
2018-05-17T00:32:06.986Z,13.60
2018-05-17T00:34:35.231Z,13.60
2018-05-17T00:37:03.482Z,13.50
2018-05-17T00:39:31.756Z,13.50
2018-05-17T00:42:00.087Z,13.50
2018-05-17T00:44:28.335Z,13.40
2018-05-17T00:46:56.616Z,13.40
2018-05-17T00:49:24.919Z,13.30
2018-05-17T00:51:53.170Z,13.30
2018-05-17T00:54:21.465Z,13.30
2018-05-17T00:56:49.742Z,13.20
2018-05-17T00:59:17.999Z,13.20
2018-05-17T01:01:46.290Z,13.20
2018-05-17T01:04:14.547Z,13.20
2018-05-17T01:06:43.119Z,13.10
2018-05-17T01:09:12.126Z,13.10
2018-05-17T01:11:40.415Z,13.10
2018-05-17T01:14:08.691Z,13.10
2018-05-17T01:16:36.950Z,13.00
2018-05-17T01:19:05.244Z,13.00
2018-05-17T01:21:33.537Z,13.00
2018-05-17T01:24:01.795Z,13.00
2018-05-17T01:26:30.054Z,12.90
2018-05-17T01:28:58.356Z,13.00
2018-05-17T01:31:26.625Z,13.00
2018-05-17T01:33:54.896Z,13.00
2018-05-17T01:36:23.144Z,13.00
2018-05-17T01:38:52.281Z,12.90
2018-05-17T01:41:20.531Z,12.80
2018-05-17T01:43:48.796Z,12.80
2018-05-17T01:46:17.103Z,12.80
2018-05-17T01:48:45.364Z,12.70
2018-05-17T01:51:13.661Z,12.70
2018-05-17T01:53:41.932Z,12.60
2018-05-17T01:56:10.187Z,12.60
2018-05-17T01:58:38.461Z,12.60
2018-05-17T02:01:06.729Z,12.50
2018-05-17T02:03:35.018Z,12.50
2018-05-17T02:06:04.405Z,12.50
2018-05-17T02:08:33.404Z,12.40
2018-05-17T02:11:01.708Z,12.40
2018-05-17T02:13:29.971Z,12.40
2018-05-17T02:15:58.252Z,12.30
2018-05-17T02:18:26.528Z,12.30
2018-05-17T02:20:54.800Z,12.20
2018-05-17T02:23:23.055Z,12.20
2018-05-17T02:25:51.360Z,12.20
2018-05-17T02:28:19.623Z,12.20
2018-05-17T02:30:47.915Z,12.10
2018-05-17T02:33:16.176Z,12.10
2018-05-17T02:35:44.454Z,12.10
2018-05-17T02:38:12.705Z,12.10
2018-05-17T02:40:41.010Z,12.10
2018-05-17T02:43:09.288Z,12.00
2018-05-17T02:45:37.601Z,12.00
2018-05-17T02:48:05.841Z,11.90
2018-05-17T02:50:34.212Z,11.90
2018-05-17T02:53:02.487Z,11.90
2018-05-17T02:55:30.755Z,11.80
2018-05-17T02:57:59.016Z,11.80
2018-05-17T03:00:27.326Z,11.80
2018-05-17T03:02:55.590Z,11.70
2018-05-17T03:05:23.864Z,11.70
2018-05-17T03:07:52.128Z,11.70
2018-05-17T03:10:20.416Z,11.60
2018-05-17T03:12:48.672Z,11.60
2018-05-17T03:15:16.940Z,11.60
2018-05-17T03:17:45.192Z,11.50
2018-05-17T03:20:14.236Z,11.40
2018-05-17T03:22:42.496Z,11.40
2018-05-17T03:25:10.784Z,11.40
2018-05-17T03:27:39.064Z,11.40
2018-05-17T03:30:07.332Z,11.40
2018-05-17T03:32:35.583Z,11.40
2018-05-17T03:35:03.873Z,11.40
2018-05-17T03:37:32.132Z,11.40
2018-05-17T03:40:00.395Z,11.40
2018-05-17T03:42:29.433Z,11.50
2018-05-17T03:44:57.688Z,11.40
2018-05-17T03:47:25.960Z,11.50
2018-05-17T03:49:54.255Z,11.50
2018-05-17T03:52:22.525Z,11.50
2018-05-17T03:54:50.816Z,11.50
2018-05-17T03:57:19.086Z,11.50
2018-05-17T03:59:47.349Z,11.40
2018-05-17T04:02:27.880Z,11.50
2018-05-17T04:05:09.521Z,11.50
2018-05-17T04:07:37.788Z,11.50
2018-05-17T04:10:06.059Z,11.60
2018-05-17T04:12:34.344Z,11.70
2018-05-17T04:15:02.609Z,11.70
2018-05-17T04:17:30.881Z,11.80
2018-05-17T04:19:59.135Z,11.80
2018-05-17T04:22:27.439Z,11.90
2018-05-17T04:24:55.712Z,11.90
2018-05-17T04:27:23.980Z,12.00
2018-05-17T04:29:52.264Z,12.10
2018-05-17T04:32:20.543Z,12.30
2018-05-17T04:34:48.823Z,12.30
2018-05-17T04:37:17.083Z,12.30
2018-05-17T04:39:45.371Z,12.20
2018-05-17T04:42:13.644Z,12.20
2018-05-17T04:44:41.900Z,12.20
2018-05-17T04:47:10.214Z,12.20
2018-05-17T04:49:38.436Z,12.30
2018-05-17T04:52:06.710Z,12.40
2018-05-17T04:54:34.979Z,12.60
2018-05-17T04:57:04.015Z,12.80
2018-05-17T04:59:32.273Z,12.80
2018-05-17T05:02:00.537Z,12.80
2018-05-17T05:04:28.799Z,12.90
2018-05-17T05:06:57.059Z,12.90
2018-05-17T05:09:25.358Z,12.90
2018-05-17T05:11:53.596Z,13.00
2018-05-17T05:14:21.861Z,13.10
2018-05-17T05:16:50.108Z,13.30
2018-05-17T05:19:18.377Z,13.40
2018-05-17T05:21:46.687Z,13.60
2018-05-17T05:24:14.942Z,13.70
2018-05-17T05:26:43.220Z,13.70
2018-05-17T05:29:11.499Z,13.80
2018-05-17T05:31:39.797Z,14.10
2018-05-17T05:34:08.035Z,14.30
2018-05-17T05:36:36.289Z,14.30
2018-05-17T05:39:05.363Z,14.10
2018-05-17T05:41:33.693Z,14.00
2018-05-17T05:44:01.968Z,14.40
2018-05-17T05:46:30.244Z,14.90
2018-05-17T05:48:58.504Z,15.00
2018-05-17T05:51:26.759Z,15.40
2018-05-17T05:53:55.027Z,15.80
2018-05-17T05:56:24.059Z,16.40
2018-05-17T05:58:52.380Z,16.40
2018-05-17T06:01:20.621Z,16.60
2018-05-17T06:03:48.888Z,16.70
2018-05-17T06:06:17.181Z,16.50
2018-05-17T06:08:45.440Z,16.20
2018-05-17T06:11:13.694Z,16.40
2018-05-17T06:13:41.992Z,16.40
2018-05-17T06:16:10.257Z,16.60
2018-05-17T06:18:38.503Z,16.50
2018-05-17T06:21:07.549Z,16.80
2018-05-17T06:23:35.795Z,16.80
2018-05-17T06:26:04.060Z,17.20
2018-05-17T06:28:32.373Z,17.70
2018-05-17T06:31:00.735Z,17.60
2018-05-17T06:33:29.011Z,17.70
2018-05-17T06:35:57.288Z,17.90
2018-05-17T06:38:25.565Z,18.30
2018-05-17T06:40:53.820Z,18.30
2018-05-17T06:43:22.126Z,17.80
2018-05-17T06:45:50.389Z,17.30
2018-05-17T06:48:18.653Z,17.40
2018-05-17T06:50:46.958Z,17.20
2018-05-17T06:53:15.202Z,16.90
2018-05-17T06:55:43.499Z,16.80
2018-05-17T06:58:11.769Z,16.30
2018-05-17T07:00:40.204Z,15.90
2018-05-17T07:03:08.300Z,15.60
2018-05-17T07:05:36.596Z,15.20
2018-05-17T07:08:04.869Z,15.30
2018-05-17T07:10:33.222Z,15.40
2018-05-17T07:13:01.424Z,15.30
2018-05-17T07:15:29.679Z,15.50
2018-05-17T07:17:58.063Z,15.60
2018-05-17T07:20:26.196Z,15.70
2018-05-17T07:22:55.243Z,15.80
2018-05-17T07:25:23.507Z,15.80
2018-05-17T07:27:51.901Z,16.00
2018-05-17T07:30:20.170Z,16.30
2018-05-17T07:32:48.443Z,16.60
2018-05-17T07:35:16.724Z,16.80
2018-05-17T07:37:44.989Z,16.70
2018-05-17T07:40:13.285Z,16.20
2018-05-17T07:42:41.537Z,15.70
2018-05-17T07:45:10.610Z,15.40
2018-05-17T07:47:38.852Z,15.30
2018-05-17T07:50:07.226Z,15.00
2018-05-17T07:52:35.476Z,14.80
2018-05-17T07:55:03.728Z,14.70
2018-05-17T07:57:32.652Z,14.50
2018-05-17T08:00:00.917Z,14.50
2018-05-17T08:02:29.172Z,14.40
2018-05-17T08:04:57.459Z,14.20
2018-05-17T08:07:25.735Z,14.10
2018-05-17T08:09:54.032Z,14.00
2018-05-17T08:12:22.297Z,14.20
2018-05-17T08:14:50.544Z,14.50
2018-05-17T08:17:18.836Z,14.80
2018-05-17T08:19:47.085Z,15.10
2018-05-17T08:22:15.387Z,15.50
2018-05-17T08:24:43.672Z,15.80
2018-05-17T08:27:11.957Z,15.90
2018-05-17T08:29:40.216Z,15.60
2018-05-17T08:32:08.481Z,15.40
2018-05-17T08:34:36.734Z,15.00
2018-05-17T08:37:05.049Z,14.80
2018-05-17T08:39:33.305Z,14.90
2018-05-17T08:42:01.568Z,14.70
2018-05-17T08:44:29.821Z,14.60
2018-05-17T08:46:58.840Z,14.40
2018-05-17T08:49:27.145Z,14.40
2018-05-17T08:51:55.400Z,14.40
2018-05-17T08:54:23.704Z,14.40
2018-05-17T08:56:52.670Z,14.30
2018-05-17T08:59:20.925Z,14.30
2018-05-17T09:01:49.188Z,14.50
2018-05-17T09:04:18.228Z,14.90
2018-05-17T09:06:46.505Z,14.90
2018-05-17T09:09:14.768Z,15.20
2018-05-17T09:11:43.016Z,15.60
2018-05-17T09:14:11.333Z,16.10
2018-05-17T09:16:39.626Z,16.80
2018-05-17T09:19:07.975Z,17.40
2018-05-17T09:21:36.224Z,18.00
2018-05-17T09:24:04.489Z,18.50
2018-05-17T09:26:33.487Z,18.00
2018-05-17T09:29:01.804Z,18.00
2018-05-17T09:31:30.048Z,17.50
2018-05-17T09:33:58.348Z,16.90
2018-05-17T09:36:26.602Z,16.30
2018-05-17T09:38:54.857Z,16.50
2018-05-17T09:41:23.976Z,17.30
2018-05-17T09:43:52.128Z,17.30
2018-05-17T09:46:21.160Z,17.30
2018-05-17T09:48:49.440Z,17.30
2018-05-17T09:51:17.684Z,17.50
2018-05-17T09:53:45.939Z,17.70
2018-05-17T09:56:14.975Z,18.20
2018-05-17T09:58:43.262Z,18.20
2018-05-17T10:01:11.537Z,18.50
2018-05-17T10:03:39.791Z,18.30
2018-05-17T10:06:08.081Z,18.00
2018-05-17T10:08:36.330Z,17.90
2018-05-17T10:11:04.628Z,18.00
2018-05-17T10:13:32.907Z,18.00
2018-05-17T10:16:01.158Z,18.30
2018-05-17T10:18:29.420Z,18.60
2018-05-17T10:20:58.464Z,18.80
2018-05-17T10:23:26.727Z,18.80
2018-05-17T10:25:54.999Z,18.60
2018-05-17T10:28:23.252Z,18.10
2018-05-17T10:30:51.495Z,17.90
2018-05-17T10:33:20.540Z,17.30
2018-05-17T10:35:48.791Z,17.30
2018-05-17T10:38:17.092Z,17.10
2018-05-17T10:40:45.332Z,16.90
2018-05-17T10:43:13.641Z,16.80
2018-05-17T10:45:41.919Z,16.80
2018-05-17T10:48:10.177Z,17.00
2018-05-17T10:50:38.463Z,16.90
2018-05-17T10:53:06.715Z,16.70
2018-05-17T10:55:34.991Z,16.80
2018-05-17T10:58:04.000Z,17.00
2018-05-17T11:00:32.254Z,17.00
2018-05-17T11:03:00.564Z,16.90
2018-05-17T11:05:28.828Z,16.90
2018-05-17T11:07:57.085Z,16.70
2018-05-17T11:10:25.392Z,16.40
2018-05-17T11:12:53.659Z,16.30
2018-05-17T11:15:21.955Z,16.30
2018-05-17T11:17:50.223Z,16.30
2018-05-17T11:20:18.531Z,16.40
2018-05-17T11:22:46.755Z,16.40
2018-05-17T11:25:15.012Z,16.30
2018-05-17T11:27:43.256Z,16.30
2018-05-17T11:30:11.596Z,16.40
2018-05-17T11:32:39.852Z,16.40
2018-05-17T11:35:08.121Z,16.20
2018-05-17T11:37:36.372Z,16.20
2018-05-17T11:40:05.399Z,16.20
2018-05-17T11:42:33.659Z,16.20
2018-05-17T11:45:01.959Z,16.20
2018-05-17T11:47:30.235Z,16.20
2018-05-17T11:49:59.331Z,16.10
2018-05-17T11:52:27.599Z,16.20
2018-05-17T11:54:55.883Z,16.10
2018-05-17T11:57:24.164Z,16.00
2018-05-17T11:59:52.440Z,16.10
2018-05-17T12:02:21.027Z,16.00
2018-05-17T12:04:49.284Z,15.90
2018-05-17T12:07:17.609Z,16.00
2018-05-17T12:09:45.844Z,16.00
2018-05-17T12:12:14.161Z,15.90
2018-05-17T12:14:42.496Z,15.90
2018-05-17T12:17:10.753Z,15.80
2018-05-17T12:19:39.004Z,15.80
2018-05-17T12:22:07.325Z,16.00
2018-05-17T12:24:35.581Z,16.10
2018-05-17T12:27:03.872Z,16.10
2018-05-17T12:29:32.145Z,16.10
2018-05-17T12:32:00.452Z,16.20
2018-05-17T12:34:29.225Z,16.20
2018-05-17T12:36:57.491Z,16.20
2018-05-17T12:39:25.801Z,16.10
2018-05-17T12:41:54.049Z,16.00
2018-05-17T12:44:22.305Z,16.00
2018-05-17T12:46:50.564Z,15.90
2018-05-17T12:49:18.904Z,16.10
2018-05-17T12:51:47.240Z,16.00
2018-05-17T12:54:15.492Z,16.00
2018-05-17T12:56:43.880Z,16.10
2018-05-17T12:59:12.062Z,16.10
2018-05-17T13:01:40.315Z,16.30
2018-05-17T13:04:08.585Z,16.30
2018-05-17T13:06:36.848Z,16.20
2018-05-17T13:09:05.869Z,16.30
2018-05-17T13:11:34.306Z,16.30
2018-05-17T13:14:02.540Z,16.30
2018-05-17T13:16:30.800Z,16.30
2018-05-17T13:18:59.082Z,16.60
2018-05-17T13:21:27.396Z,16.60
2018-05-17T13:23:56.680Z,16.60
2018-05-17T13:26:25.048Z,16.70
2018-05-17T13:28:53.301Z,16.70
2018-05-17T13:31:21.609Z,16.80
2018-05-17T13:33:49.888Z,16.80
2018-05-17T13:36:18.119Z,16.70
2018-05-17T13:38:46.433Z,16.70
2018-05-17T13:41:14.687Z,16.80
2018-05-17T13:43:42.955Z,16.80
2018-05-17T13:46:11.192Z,16.90
2018-05-17T13:48:39.546Z,17.00
2018-05-17T13:51:07.799Z,17.10
2018-05-17T13:53:36.093Z,17.20
2018-05-17T13:56:04.351Z,17.30
2018-05-17T13:58:32.627Z,17.20
2018-05-17T14:01:00.919Z,17.10
2018-05-17T14:03:29.173Z,17.10
2018-05-17T14:05:58.699Z,17.10
2018-05-17T14:08:26.928Z,17.10
2018-05-17T14:10:55.952Z,17.10
2018-05-17T14:13:24.235Z,17.10
2018-05-17T14:15:52.550Z,17.10
2018-05-17T14:18:20.901Z,17.20
2018-05-17T14:20:49.155Z,17.20
2018-05-17T14:23:18.289Z,17.20
2018-05-17T14:25:46.541Z,17.30
2018-05-17T14:28:14.812Z,17.30
2018-05-17T14:30:43.056Z,17.30
2018-05-17T14:33:11.370Z,17.40
2018-05-17T14:35:39.615Z,17.50
2018-05-17T14:38:07.867Z,17.50
2018-05-17T14:40:36.893Z,17.70
2018-05-17T14:43:05.145Z,17.70
2018-05-17T14:45:34.159Z,17.60
2018-05-17T14:48:02.448Z,17.60
2018-05-17T14:50:30.702Z,17.50
2018-05-17T14:52:59.010Z,17.70
2018-05-17T14:55:27.288Z,17.80
2018-05-17T14:57:55.549Z,17.70
2018-05-17T15:00:23.814Z,17.60
2018-05-17T15:02:52.066Z,17.70
2018-05-17T15:05:21.092Z,17.60
2018-05-17T15:07:49.363Z,17.60
2018-05-17T15:10:17.651Z,17.60
2018-05-17T15:12:45.947Z,17.60
2018-05-17T15:15:14.337Z,17.60
2018-05-17T15:17:42.558Z,17.60
2018-05-17T15:20:10.815Z,17.60
2018-05-17T15:22:39.066Z,17.50
2018-05-17T15:25:07.322Z,17.60
2018-05-17T15:27:35.620Z,17.60
2018-05-17T15:30:03.882Z,17.60
2018-05-17T15:32:32.219Z,17.60
2018-05-17T15:35:00.500Z,17.60
2018-05-17T15:37:28.781Z,17.60
2018-05-17T15:39:57.027Z,17.50
2018-05-17T15:42:25.267Z,17.60
2018-05-17T15:44:53.519Z,17.60
2018-05-17T15:47:21.772Z,17.60
2018-05-17T15:49:50.056Z,17.50
2018-05-17T15:52:18.295Z,17.40
2018-05-17T15:54:46.552Z,17.40
2018-05-17T15:57:15.587Z,17.40
2018-05-17T15:59:43.872Z,17.40
2018-05-17T16:02:12.659Z,17.30
2018-05-17T16:04:40.912Z,17.20
2018-05-17T16:07:09.199Z,17.10
2018-05-17T16:09:37.490Z,17.00
2018-05-17T16:12:05.770Z,17.00
2018-05-17T16:14:34.028Z,16.90
2018-05-17T16:17:02.260Z,16.90
2018-05-17T16:19:31.312Z,16.90
2018-05-17T16:21:59.594Z,16.90
2018-05-17T16:24:27.857Z,16.90
2018-05-17T16:26:56.140Z,16.90
2018-05-17T16:29:24.387Z,16.80
2018-05-17T16:31:52.647Z,16.70
2018-05-17T16:34:20.948Z,16.60
2018-05-17T16:36:49.207Z,16.60
2018-05-17T16:39:17.452Z,16.50
2018-05-17T16:41:46.495Z,16.50
2018-05-17T16:44:14.768Z,16.40
2018-05-17T16:46:43.027Z,16.40
2018-05-17T16:49:11.281Z,16.40
2018-05-17T16:51:40.328Z,16.30
2018-05-17T16:54:08.639Z,16.30
2018-05-17T16:56:36.819Z,16.30
2018-05-17T16:59:05.836Z,16.10
2018-05-17T17:01:34.095Z,16.10
2018-05-17T17:04:03.127Z,15.90
2018-05-17T17:06:31.404Z,15.90
2018-05-17T17:08:59.684Z,15.80
2018-05-17T17:11:27.955Z,15.80
2018-05-17T17:13:56.216Z,15.70
2018-05-17T17:16:24.487Z,15.70
2018-05-17T17:18:52.744Z,15.60
2018-05-17T17:21:21.899Z,15.50
2018-05-17T17:23:50.206Z,15.40
2018-05-17T17:26:18.392Z,15.40
2018-05-17T17:28:46.708Z,15.30
2018-05-17T17:31:14.985Z,15.30
2018-05-17T17:33:43.229Z,15.20
2018-05-17T17:36:11.506Z,15.20
2018-05-17T17:38:40.500Z,15.10
2018-05-17T17:41:08.756Z,15.10
2018-05-17T17:43:37.784Z,15.00
2018-05-17T17:46:06.071Z,15.00
2018-05-17T17:48:34.413Z,15.00
2018-05-17T17:51:02.815Z,14.90
2018-05-17T17:53:31.073Z,14.80
2018-05-17T17:55:59.337Z,14.70
2018-05-17T17:58:27.652Z,14.60
2018-05-17T18:00:55.925Z,14.60
2018-05-17T18:03:24.195Z,14.50
2018-05-17T18:05:52.467Z,14.40
2018-05-17T18:08:21.005Z,14.30
2018-05-17T18:10:49.231Z,14.20
2018-05-17T18:13:17.489Z,14.10
2018-05-17T18:15:45.779Z,14.00
2018-05-17T18:18:14.841Z,13.80
2018-05-17T18:20:43.084Z,13.80
2018-05-17T18:23:11.331Z,13.70
2018-05-17T18:25:39.578Z,13.60
2018-05-17T18:28:07.890Z,13.50
2018-05-17T18:30:36.146Z,13.40
2018-05-17T18:33:04.395Z,13.30
2018-05-17T18:35:32.647Z,13.30
2018-05-17T18:38:01.695Z,13.10
2018-05-17T18:40:29.935Z,13.10
2018-05-17T18:42:58.192Z,13.00
2018-05-17T18:45:27.199Z,12.80
2018-05-17T18:47:55.503Z,12.80
2018-05-17T18:50:23.757Z,12.70
2018-05-17T18:52:54.853Z,12.60
2018-05-17T18:55:24.647Z,12.40
2018-05-17T18:57:52.899Z,12.40
2018-05-17T19:00:21.173Z,12.30
2018-05-17T19:02:49.494Z,12.20
2018-05-17T19:05:18.456Z,12.10
2018-05-17T19:07:46.838Z,12.00
2018-05-17T19:10:15.079Z,12.00
2018-05-17T19:12:43.350Z,11.90
2018-05-17T19:15:11.612Z,11.80
2018-05-17T19:17:40.645Z,11.70
2018-05-17T19:20:08.919Z,11.70
2018-05-17T19:22:37.173Z,11.60
2018-05-17T19:25:05.449Z,11.60
2018-05-17T19:27:33.699Z,11.50
2018-05-17T19:30:02.739Z,11.40
2018-05-17T19:32:30.997Z,11.40
2018-05-17T19:34:59.291Z,11.50
2018-05-17T19:37:27.617Z,11.40
2018-05-17T19:39:55.816Z,11.40
2018-05-17T19:42:24.091Z,11.30
2018-05-17T19:44:52.382Z,11.20
2018-05-17T19:47:20.754Z,11.20
2018-05-17T19:49:48.956Z,11.10
2018-05-17T19:52:17.204Z,11.10
2018-05-17T19:54:45.459Z,11.20
2018-05-17T19:57:13.716Z,11.20
2018-05-17T19:59:42.978Z,11.10
2018-05-17T20:02:11.219Z,11.10
2018-05-17T20:04:39.562Z,11.10
2018-05-17T20:07:07.806Z,11.10
2018-05-17T20:09:36.077Z,11.10
2018-05-17T20:12:04.332Z,11.20
2018-05-17T20:14:32.601Z,11.10
2018-05-17T20:17:00.912Z,11.20
2018-05-17T20:19:29.173Z,11.30
2018-05-17T20:21:57.426Z,11.40
2018-05-17T20:24:25.719Z,11.50
2018-05-17T20:26:53.985Z,11.60
2018-05-17T20:29:22.387Z,11.60
2018-05-17T20:31:50.507Z,11.70
2018-05-17T20:34:19.544Z,11.70
2018-05-17T20:36:47.869Z,11.70
2018-05-17T20:39:16.100Z,11.70
2018-05-17T20:41:44.356Z,11.70
2018-05-17T20:44:12.655Z,11.70
2018-05-17T20:46:40.929Z,11.70
2018-05-17T20:49:09.196Z,11.70
2018-05-17T20:51:37.459Z,11.70
2018-05-17T20:54:05.754Z,11.70
2018-05-17T20:56:34.021Z,11.70
2018-05-17T20:59:02.284Z,11.70
2018-05-17T21:01:30.574Z,11.70
2018-05-17T21:03:58.849Z,11.70
2018-05-17T21:06:27.128Z,11.80
2018-05-17T21:08:55.380Z,11.80
2018-05-17T21:11:23.681Z,11.80
2018-05-17T21:13:51.932Z,11.80
2018-05-17T21:16:20.231Z,11.80
2018-05-17T21:18:48.492Z,11.80
2018-05-17T21:21:16.755Z,11.70
2018-05-17T21:23:45.016Z,11.70
2018-05-17T21:26:13.284Z,11.70
2018-05-17T21:28:42.318Z,11.60
2018-05-17T21:31:10.579Z,11.60
2018-05-17T21:33:38.869Z,11.60
2018-05-17T21:36:07.148Z,11.50
2018-05-17T21:38:35.427Z,11.50
2018-05-17T21:41:03.695Z,11.50
2018-05-17T21:43:31.954Z,11.50
2018-05-17T21:46:00.251Z,11.50
2018-05-17T21:48:29.804Z,11.50
2018-05-17T21:50:58.065Z,11.50
2018-05-17T21:53:26.353Z,11.50
2018-05-17T21:55:55.388Z,11.50
2018-05-17T21:58:23.676Z,11.50
2018-05-17T22:00:51.962Z,11.50
2018-05-17T22:03:20.214Z,11.50
2018-05-17T22:05:48.479Z,11.50
2018-05-17T22:08:16.797Z,11.50
2018-05-17T22:10:45.055Z,11.50
2018-05-17T22:13:13.312Z,11.50
2018-05-17T22:15:41.560Z,11.50
2018-05-17T22:18:10.585Z,11.50
2018-05-17T22:20:38.884Z,11.40
2018-05-17T22:23:07.160Z,11.50
2018-05-17T22:25:35.428Z,11.50
2018-05-17T22:28:03.712Z,11.50
2018-05-17T22:30:32.668Z,11.50
2018-05-17T22:33:00.925Z,11.50
2018-05-17T22:35:29.973Z,11.50
2018-05-17T22:37:58.233Z,11.50
2018-05-17T22:40:26.521Z,11.40
2018-05-17T22:42:54.813Z,11.50
2018-05-17T22:45:23.090Z,11.50
2018-05-17T22:47:51.453Z,11.50
2018-05-17T22:50:19.718Z,11.50
2018-05-17T22:52:47.976Z,11.50
2018-05-17T22:55:16.242Z,11.50
2018-05-17T22:57:56.361Z,11.50
2018-05-17T23:00:24.636Z,11.50
2018-05-17T23:02:52.990Z,11.50
2018-05-17T23:05:21.253Z,11.50
2018-05-17T23:07:49.520Z,11.50
2018-05-17T23:10:17.772Z,11.50
2018-05-17T23:12:46.045Z,11.50
2018-05-17T23:15:14.313Z,11.50
2018-05-17T23:17:42.631Z,11.50
2018-05-17T23:20:12.274Z,11.50
2018-05-17T23:22:40.635Z,11.50
2018-05-17T23:25:09.002Z,11.50
2018-05-17T23:27:37.357Z,11.50
2018-05-17T23:30:05.612Z,11.50
2018-05-17T23:32:33.869Z,11.50
2018-05-17T23:35:02.921Z,11.40
2018-05-17T23:37:31.194Z,11.40
2018-05-17T23:40:11.553Z,11.40
2018-05-17T23:42:39.816Z,11.40
2018-05-17T23:45:08.082Z,11.40
2018-05-17T23:47:36.386Z,11.40
2018-05-17T23:50:04.640Z,11.40
2018-05-17T23:52:32.929Z,11.40
2018-05-17T23:55:01.197Z,11.40
2018-05-17T23:57:29.481Z,11.30
2018-05-17T23:59:57.748Z,11.30
